Time;durP1;ratioP1;P1;durP2;ratioP2;P2;SDS_P1;SDS_P2;PMS_P1;PMS_P2;Temp;Humidity;BMP_temperature;BMP_pressure;BME280_temperature;BME280_humidity;BME280_pressure;Samples;Min_cycle;Max_cycle;Signal;HPM_P1;HPM_P2
2024/04/15 00:00:24;;;;;;;9.35;1.50;;;;;;;7.56;nan;100537.31;5312417;27;20444;-86
2024/04/15 00:02:49;;;;;;;10.18;2.72;;;;;;;7.51;nan;100526.41;5312710;27;20052;-85
2024/04/15 00:05:14;;;;;;;7.78;1.00;;;;;;;7.59;nan;100519.19;5312306;27;20002;-85
2024/04/15 00:07:40;;;;;;;10.15;1.63;;;;;;;7.50;nan;100520.41;5312423;27;19997;-84
2024/04/15 00:10:07;;;;;;;7.85;1.92;;;;;;;7.66;nan;100512.91;5312136;27;20133;-84
2024/04/15 00:12:32;;;;;;;6.38;1.58;;;;;;;7.62;nan;100503.66;5312523;27;20001;-83
2024/04/15 00:14:58;;;;;;;13.63;2.55;;;;;;;7.74;nan;100497.13;5312321;27;19998;-84
2024/04/15 00:17:23;;;;;;;11.98;1.67;;;;;;;7.78;nan;100493.53;5312332;27;20009;-84
2024/04/15 00:19:51;;;;;;;10.00;1.80;;;;;;;7.69;nan;100487.06;5312268;27;20002;-83
2024/04/15 00:22:16;;;;;;;11.10;1.63;;;;;;;7.81;nan;100482.28;5281997;27;19997;-85
2024/04/15 00:24:42;;;;;;;7.50;1.35;;;;;;;7.86;nan;100485.47;5281886;27;19994;-84
2024/04/15 00:27:07;;;;;;;7.90;1.20;;;;;;;7.73;nan;100472.34;5312423;27;20005;-84
2024/04/15 00:29:33;;;;;;;11.73;1.63;;;;;;;7.72;nan;100468.94;5312286;27;20420;-84
2024/04/15 00:31:58;;;;;;;5.05;1.13;;;;;;;7.77;nan;100461.03;5281588;27;20002;-84
2024/04/15 00:34:24;;;;;;;7.45;1.30;;;;;;;7.80;nan;100444.63;5311910;27;20002;-85
2024/04/15 00:36:49;;;;;;;14.80;1.88;;;;;;;7.72;nan;100432.97;5311894;27;19998;-85
2024/04/15 00:39:14;;;;;;;13.13;1.48;;;;;;;7.78;nan;100420.72;5312091;27;20432;-85
2024/04/15 00:41:40;;;;;;;10.98;1.45;;;;;;;7.80;nan;100424.06;5311894;27;20481;-84
2024/04/15 00:44:05;;;;;;;9.52;1.25;;;;;;;7.77;nan;100419.91;5311856;27;20078;-85
2024/04/15 00:46:30;;;;;;;25.52;2.33;;;;;;;7.65;nan;100423.88;5311991;27;20013;-85
2024/04/15 00:48:57;;;;;;;16.55;1.80;;;;;;;7.75;nan;100423.47;5281476;27;20460;-85
2024/04/15 00:51:24;;;;;;;10.88;1.75;;;;;;;7.78;nan;100411.31;5280034;27;19998;-85
2024/04/15 00:53:51;;;;;;;10.77;1.25;;;;;;;7.81;nan;100400.06;5311575;27;20068;-84
2024/04/15 00:56:20;;;;;;;19.85;2.08;;;;;;;7.92;nan;100393.53;5311668;27;20526;-85
2024/04/15 00:58:46;;;;;;;11.27;1.48;;;;;;;8.00;nan;100377.72;5281278;27;20360;-83
2024/04/15 01:01:13;;;;;;;9.43;1.05;;;;;;;7.83;nan;100367.44;5281454;27;19997;-84
2024/04/15 01:03:38;;;;;;;17.40;2.22;;;;;;;7.69;nan;100373.19;5311381;27;20009;-83
2024/04/15 01:06:05;;;;;;;7.70;1.92;;;;;;;7.78;nan;100364.22;5311544;27;20086;-85
2024/04/15 01:08:31;;;;;;;9.75;1.33;;;;;;;7.81;nan;100361.53;5311694;27;20022;-86
2024/04/15 01:10:56;;;;;;;11.80;1.55;;;;;;;7.94;nan;100357.44;5281554;27;20071;-84
2024/04/15 01:13:22;;;;;;;10.25;1.38;;;;;;;7.84;nan;100348.53;5281370;27;20001;-83
2024/04/15 01:15:53;;;;;;;14.15;2.67;;;;;;;7.94;nan;100336.88;5281120;27;20029;-85
2024/04/15 01:18:19;;;;;;;9.88;1.27;;;;;;;7.86;nan;100337.25;5311365;27;20071;-85
2024/04/15 01:20:44;;;;;;;7.82;1.60;;;;;;;8.02;nan;100329.66;5311433;27;19998;-85
2024/04/15 01:23:14;;;;;;;10.68;1.20;;;;;;;7.91;nan;100321.63;5312001;27;20002;-85
2024/04/15 01:25:39;;;;;;;12.23;1.77;;;;;;;7.76;nan;100322.38;5311260;27;20034;-83
2024/04/15 01:28:05;;;;;;;15.25;1.42;;;;;;;7.75;nan;100310.41;5311352;27;19997;-85
2024/04/15 01:30:30;;;;;;;10.30;2.17;;;;;;;7.77;nan;100306.03;5311525;27;20357;-83
2024/04/15 01:32:57;;;;;;;14.65;2.72;;;;;;;7.87;nan;100302.13;5280929;27;20017;-84
2024/04/15 01:35:23;;;;;;;12.45;1.42;;;;;;;7.80;nan;100290.47;5311199;27;20002;-85
2024/04/15 01:37:50;;;;;;;17.88;3.28;;;;;;;7.82;nan;100289.50;5310881;27;20073;-83
2024/04/15 01:40:15;;;;;;;12.90;1.70;;;;;;;7.83;nan;100280.88;5311220;27;20420;-83
2024/04/15 01:42:41;;;;;;;9.80;1.52;;;;;;;7.82;nan;100281.78;5311048;27;20518;-85
2024/04/15 01:45:06;;;;;;;11.27;1.88;;;;;;;7.80;nan;100270.75;5311140;27;19997;-86
2024/04/15 01:47:34;;;;;;;10.13;1.80;;;;;;;7.81;nan;100271.59;5311222;27;20441;-85
2024/04/15 01:49:59;;;;;;;12.63;2.35;;;;;;;7.77;nan;100259.78;5311007;27;20001;-84
2024/04/15 01:52:25;;;;;;;11.88;1.58;;;;;;;7.69;nan;100237.06;5311092;27;20080;-83
2024/04/15 01:54:50;;;;;;;7.22;1.55;;;;;;;7.75;nan;100235.91;5310608;27;20005;-83
2024/04/15 01:57:15;;;;;;;13.05;2.22;;;;;;;7.79;nan;100227.16;5310880;27;20551;-84
2024/04/15 01:59:40;;;;;;;8.95;2.28;;;;;;;7.69;nan;100232.75;5311072;27;20034;-86
2024/04/15 02:02:06;;;;;;;8.13;1.38;;;;;;;7.69;nan;100221.63;5310804;27;19998;-85
2024/04/15 02:04:31;;;;;;;9.52;1.77;;;;;;;7.62;nan;100215.13;5310780;27;20002;-84
2024/04/15 02:06:56;;;;;;;19.83;1.88;;;;;;;7.62;nan;100200.56;5310589;27;20012;-84
2024/04/15 02:09:22;;;;;;;13.50;2.38;;;;;;;7.49;nan;100200.31;5310914;27;20012;-84
2024/04/15 02:11:47;;;;;;;10.75;1.98;;;;;;;7.48;nan;100201.22;5280513;27;20002;-85
2024/04/15 02:14:13;;;;;;;10.15;1.30;;;;;;;7.47;nan;100185.91;5310865;27;20008;-85
2024/04/15 02:16:38;;;;;;;13.85;1.40;;;;;;;7.52;nan;100177.97;5310901;27;20481;-84
2024/04/15 02:19:03;;;;;;;6.72;1.40;;;;;;;7.53;nan;100185.59;5310508;27;19998;-84
2024/04/15 02:21:29;;;;;;;11.57;1.65;;;;;;;7.44;nan;100173.22;5310599;27;20009;-84
2024/04/15 02:23:54;;;;;;;6.85;1.33;;;;;;;7.53;nan;100179.63;5310624;27;20340;-84
2024/04/15 02:26:19;;;;;;;19.05;3.03;;;;;;;7.37;nan;100162.41;5280285;27;19997;-85
2024/04/15 02:28:45;;;;;;;5.53;1.00;;;;;;;7.45;nan;100156.88;5310555;27;19998;-85
2024/04/15 02:31:10;;;;;;;10.95;2.00;;;;;;;7.55;nan;100137.53;5310532;27;20026;-85
2024/04/15 02:33:35;;;;;;;11.20;1.38;;;;;;;7.60;nan;100145.84;5310269;27;20086;-83
2024/04/15 02:36:01;;;;;;;11.70;2.17;;;;;;;7.68;nan;100138.63;5310432;27;20008;-84
2024/04/15 02:38:26;;;;;;;6.47;1.38;;;;;;;7.60;nan;100130.44;5310170;27;19998;-84
2024/04/15 02:40:52;;;;;;;6.65;1.83;;;;;;;7.55;nan;100137.53;5280105;27;20014;-83
2024/04/15 02:43:18;;;;;;;13.75;2.13;;;;;;;7.57;nan;100130.59;5310318;27;20334;-85
2024/04/15 02:45:43;;;;;;;7.03;1.35;;;;;;;7.60;nan;100143.28;5310422;27;20377;-84
2024/04/15 02:48:08;;;;;;;16.70;1.38;;;;;;;7.52;nan;100135.13;5280012;27;19997;-84
2024/04/15 02:50:33;;;;;;;11.95;1.98;;;;;;;7.57;nan;100114.38;5310252;27;20010;-84
2024/04/15 02:52:59;;;;;;;9.32;1.80;;;;;;;7.60;nan;100109.91;5310233;27;20008;-84
2024/04/15 02:55:24;;;;;;;7.10;1.35;;;;;;;7.66;nan;100113.91;5310096;27;19994;-84
2024/04/15 02:57:50;;;;;;;9.38;1.17;;;;;;;7.69;nan;100104.31;5309956;27;20002;-84
2024/04/15 03:00:16;;;;;;;15.27;1.67;;;;;;;7.66;nan;100098.50;5310039;27;20248;-84
2024/04/15 03:02:41;;;;;;;6.75;1.60;;;;;;;7.67;nan;100097.56;5310047;27;20432;-84
2024/04/15 03:05:06;;;;;;;9.65;1.30;;;;;;;7.61;nan;100085.06;5310038;27;20004;-84
2024/04/15 03:07:32;;;;;;;10.70;1.40;;;;;;;7.57;nan;100073.28;5309902;27;20075;-85
2024/04/15 03:09:57;;;;;;;8.00;1.27;;;;;;;7.54;nan;100073.44;5309935;27;20002;-84
2024/04/15 03:12:23;;;;;;;9.10;1.67;;;;;;;7.61;nan;100064.53;5309662;27;20013;-85
2024/04/15 03:14:49;;;;;;;13.68;2.15;;;;;;;7.58;nan;100056.94;5312136;27;20343;-85
2024/04/15 03:17:14;;;;;;;16.00;2.05;;;;;;;7.57;nan;100048.41;5312915;27;20500;-84
2024/04/15 03:19:39;;;;;;;13.02;2.40;;;;;;;7.55;nan;100034.81;5313034;27;20363;-84
2024/04/15 03:22:05;;;;;;;9.48;1.45;;;;;;;7.70;nan;100040.91;5312898;27;20001;-84
2024/04/15 03:24:30;;;;;;;5.35;1.15;;;;;;;7.60;nan;100032.84;5312990;27;19997;-84
2024/04/15 03:26:58;;;;;;;13.95;1.88;;;;;;;7.57;nan;100022.75;5312898;27;20013;-84
2024/04/15 03:29:24;;;;;;;11.10;1.60;;;;;;;7.59;nan;100018.34;5312836;27;20368;-85
2024/04/15 03:31:49;;;;;;;20.70;2.30;;;;;;;7.56;nan;100015.97;5312947;27;19993;-85
2024/04/15 03:34:14;;;;;;;9.80;1.83;;;;;;;7.59;nan;100004.69;5312762;27;20005;-84
2024/04/15 03:36:39;;;;;;;10.20;2.00;;;;;;;7.66;nan;100001.72;5282350;27;20328;-84
2024/04/15 03:39:05;;;;;;;11.52;1.75;;;;;;;7.74;nan;99995.34;5312733;27;20344;-85
2024/04/15 03:41:30;;;;;;;13.55;2.13;;;;;;;7.75;nan;99973.88;5312611;27;20002;-85
2024/04/15 03:43:55;;;;;;;6.63;1.27;;;;;;;7.76;nan;99963.53;5312500;27;20438;-83
2024/04/15 03:46:21;;;;;;;11.20;1.80;;;;;;;7.82;nan;99959.78;5312343;27;20324;-84
2024/04/15 03:48:46;;;;;;;10.43;1.40;;;;;;;7.79;nan;99947.94;5312684;27;20514;-83
2024/04/15 03:51:11;;;;;;;9.90;1.40;;;;;;;7.88;nan;99938.94;5282510;27;20001;-85
2024/04/15 03:53:37;;;;;;;8.02;1.27;;;;;;;7.84;nan;99934.84;5312501;27;20012;-83
2024/04/15 03:56:02;;;;;;;12.02;1.50;;;;;;;7.81;nan;99922.19;5312235;27;20022;-83
2024/04/15 03:58:28;;;;;;;7.38;1.95;;;;;;;7.76;nan;99924.19;5312364;27;20013;-84
2024/04/15 04:01:02;;;;;;;11.30;1.65;;;;;;;7.80;nan;99912.81;5312407;27;19997;-84
2024/04/15 04:03:27;;;;;;;13.80;1.83;;;;;;;7.84;nan;99922.00;5312695;27;20059;-84
2024/04/15 04:05:53;;;;;;;14.15;1.83;;;;;;;7.84;nan;99916.88;5312550;27;20001;-84
2024/04/15 04:08:19;;;;;;;11.70;2.00;;;;;;;7.61;nan;99903.53;5282286;27;20071;-85
2024/04/15 04:10:45;;;;;;;11.88;1.75;;;;;;;7.77;nan;99897.56;5312323;27;20006;-83
2024/04/15 04:13:10;;;;;;;9.20;1.58;;;;;;;7.81;nan;99892.19;5282293;27;20041;-85
2024/04/15 04:15:37;;;;;;;10.70;1.50;;;;;;;7.80;nan;99895.63;5312400;27;20106;-84
2024/04/15 04:18:04;;;;;;;19.23;3.70;;;;;;;7.75;nan;99887.34;5312284;27;20013;-83
2024/04/15 04:20:30;;;;;;;7.28;1.48;;;;;;;7.83;nan;99874.13;5312123;27;19997;-83
2024/04/15 04:22:55;;;;;;;11.43;1.50;;;;;;;7.86;nan;99874.75;5282253;27;20459;-83
2024/04/15 04:25:20;;;;;;;16.30;2.67;;;;;;;7.78;nan;99865.81;5311727;27;20506;-84
2024/04/15 04:27:45;;;;;;;12.18;1.98;;;;;;;7.98;nan;99862.16;5312280;27;19998;-85
2024/04/15 04:30:11;;;;;;;10.40;2.47;;;;;;;7.94;nan;99852.03;5312117;27;19998;-85
2024/04/15 04:32:36;;;;;;;9.75;1.83;;;;;;;7.88;nan;99843.84;5312196;27;20009;-85
2024/04/15 04:35:01;;;;;;;10.70;1.88;;;;;;;7.93;nan;99839.28;5312189;27;19998;-85
2024/04/15 04:37:27;;;;;;;12.30;1.63;;;;;;;8.06;nan;99826.56;5311923;27;20702;-83
2024/04/15 04:39:52;;;;;;;13.23;2.17;;;;;;;8.05;nan;99820.59;5281844;27;20428;-85
2024/04/15 04:42:17;;;;;;;9.15;1.73;;;;;;;8.03;nan;99811.31;5311960;27;20017;-84
2024/04/15 04:44:43;;;;;;;7.63;1.25;;;;;;;8.02;nan;99813.06;5312047;27;20328;-85
2024/04/15 04:47:08;;;;;;;12.77;1.60;;;;;;;7.94;nan;99799.81;5311760;27;20333;-85
2024/04/15 04:49:33;;;;;;;9.35;1.90;;;;;;;7.97;nan;99816.81;5281640;27;19998;-84
2024/04/15 04:51:59;;;;;;;8.93;2.40;;;;;;;8.00;nan;99807.19;5311998;27;20012;-83
2024/04/15 04:54:24;;;;;;;11.70;2.10;;;;;;;8.12;nan;99803.91;5312035;27;20021;-85
2024/04/15 04:56:52;;;;;;;9.50;1.17;;;;;;;8.05;nan;99800.03;5312394;27;20042;-83
2024/04/15 04:59:17;;;;;;;11.43;1.50;;;;;;;8.09;nan;99796.38;5311857;27;20467;-85
2024/04/15 05:01:42;;;;;;;11.95;1.88;;;;;;;7.91;nan;99790.53;5311630;27;20010;-84
2024/04/15 05:04:10;;;;;;;14.20;2.53;;;;;;;8.00;nan;99784.06;5311735;27;20001;-85
2024/04/15 05:06:36;;;;;;;23.75;4.03;;;;;;;8.04;nan;99764.97;5311900;27;20009;-84
2024/04/15 05:09:02;;;;;;;15.73;2.17;;;;;;;8.08;nan;99771.59;5281534;27;19994;-83
2024/04/15 05:11:28;;;;;;;14.00;2.65;;;;;;;8.09;nan;99762.94;5311604;27;21104;-83
2024/04/15 05:13:54;;;;;;;22.70;4.13;;;;;;;8.16;nan;99748.00;5311292;27;20005;-85
2024/04/15 05:16:19;;;;;;;10.38;1.90;;;;;;;8.19;nan;99749.56;5311341;27;20001;-83
2024/04/15 05:18:45;;;;;;;18.48;2.72;;;;;;;8.23;nan;99733.06;5311450;27;20001;-85
2024/04/15 05:21:16;;;;;;;11.85;2.38;;;;;;;8.23;nan;99715.06;5281172;27;20001;-84
2024/04/15 05:23:42;;;;;;;17.45;3.33;;;;;;;8.35;nan;99722.03;5311514;27;20234;-83
2024/04/15 05:26:08;;;;;;;23.45;2.53;;;;;;;8.30;nan;99713.78;5310994;27;20491;-84
2024/04/15 05:28:34;;;;;;;12.32;2.33;;;;;;;8.28;nan;99695.03;5311372;27;20009;-84
2024/04/15 05:30:59;;;;;;;17.88;2.50;;;;;;;8.32;nan;99688.81;5281021;27;20004;-83
2024/04/15 05:33:24;;;;;;;16.13;2.28;;;;;;;8.36;nan;99700.53;5280881;27;20029;-83
2024/04/15 05:35:50;;;;;;;14.52;2.47;;;;;;;8.28;nan;99688.16;5310449;27;20072;-84
2024/04/15 05:38:16;;;;;;;9.82;2.00;;;;;;;8.28;nan;99687.34;5310706;27;20013;-83
2024/04/15 05:40:42;;;;;;;12.02;1.90;;;;;;;8.40;nan;99675.53;5311309;27;19994;-85
2024/04/15 05:43:08;;;;;;;20.33;2.63;;;;;;;8.36;nan;99667.97;5311217;27;20001;-84
2024/04/15 05:45:34;;;;;;;19.05;2.67;;;;;;;8.30;nan;99654.66;5310939;27;19997;-84
2024/04/15 05:48:00;;;;;;;23.02;2.63;;;;;;;8.29;nan;99658.97;5311197;27;20009;-84
2024/04/15 05:50:25;;;;;;;26.02;2.40;;;;;;;8.41;nan;99649.69;5311177;27;20387;-85
2024/04/15 05:52:51;;;;;;;17.40;3.38;;;;;;;8.35;nan;99634.63;5311559;27;20436;-83
2024/04/15 05:55:16;;;;;;;12.98;1.90;;;;;;;8.43;nan;99631.63;5310835;27;20471;-84
2024/04/15 05:57:42;;;;;;;11.63;2.33;;;;;;;8.47;nan;99628.75;5310893;27;20008;-84
2024/04/15 06:00:07;;;;;;;18.25;2.30;;;;;;;8.47;nan;99645.94;5310745;27;20011;-85
2024/04/15 06:02:33;;;;;;;13.75;2.00;;;;;;;8.47;nan;99636.47;5281087;27;19997;-84
2024/04/15 06:04:58;;;;;;;14.70;2.42;;;;;;;8.43;nan;99629.03;5310888;27;20001;-84
2024/04/15 06:07:23;;;;;;;12.63;2.47;;;;;;;8.52;nan;99634.44;5310975;27;20014;-84
2024/04/15 06:09:50;;;;;;;12.15;2.33;;;;;;;8.55;nan;99628.28;5310583;27;20001;-85
2024/04/15 06:12:16;;;;;;;19.10;2.50;;;;;;;8.50;nan;99615.69;5280267;27;20012;-84
2024/04/15 06:14:41;;;;;;;16.27;2.88;;;;;;;8.49;nan;99606.34;5310848;27;19997;-84
2024/04/15 06:17:06;;;;;;;19.63;2.67;;;;;;;8.51;nan;99586.50;5310471;27;20013;-83
2024/04/15 06:19:31;;;;;;;15.68;3.22;;;;;;;8.49;nan;99584.97;5310644;27;20381;-84
2024/04/15 06:21:58;;;;;;;12.68;2.00;;;;;;;8.54;nan;99583.75;5310502;27;20495;-85
2024/04/15 06:24:24;;;;;;;14.73;2.15;;;;;;;8.54;nan;99586.31;5310686;27;20006;-85
2024/04/15 06:26:49;;;;;;;12.93;1.42;;;;;;;8.62;nan;99579.88;5310475;27;20465;-84
2024/04/15 06:29:15;;;;;;;18.48;2.20;;;;;;;8.63;nan;99592.59;5310661;27;20037;-85
2024/04/15 06:31:40;;;;;;;17.25;2.30;;;;;;;8.66;nan;99565.91;5310287;27;20429;-84
2024/04/15 06:34:05;;;;;;;16.63;2.13;;;;;;;8.63;nan;99566.06;5310306;27;20082;-84
2024/04/15 06:36:31;;;;;;;14.00;1.80;;;;;;;8.72;nan;99555.19;5310535;27;20072;-84
2024/04/15 06:38:56;;;;;;;17.92;2.42;;;;;;;8.70;nan;99559.63;5280156;27;20447;-84
2024/04/15 06:41:22;;;;;;;15.02;1.73;;;;;;;8.60;nan;99561.13;5309996;27;19998;-84
2024/04/15 06:43:47;;;;;;;13.48;1.55;;;;;;;8.65;nan;99553.94;5310328;27;20009;-85
2024/04/15 06:46:12;;;;;;;19.63;2.95;;;;;;;8.72;nan;99540.59;5279756;27;20009;-84
2024/04/15 06:48:40;;;;;;;10.68;1.60;;;;;;;8.69;nan;99542.53;5312323;27;20010;-86
2024/04/15 06:51:06;;;;;;;15.40;2.40;;;;;;;8.76;nan;99542.03;5313256;27;20008;-84
2024/04/15 06:53:32;;;;;;;10.48;1.92;;;;;;;8.78;nan;99541.97;5313277;27;20014;-83
2024/04/15 06:55:57;;;;;;;11.23;2.13;;;;;;;8.76;nan;99556.66;5313362;27;20029;-84
2024/04/15 06:58:22;;;;;;;10.93;1.85;;;;;;;8.62;nan;99557.53;5313050;27;19997;-85
2024/04/15 07:00:48;;;;;;;16.33;1.80;;;;;;;8.52;nan;99547.00;5313221;27;20045;-84
2024/04/15 07:03:13;;;;;;;16.27;2.78;;;;;;;8.54;nan;99562.34;5313136;27;20002;-84
2024/04/15 07:05:38;;;;;;;10.40;1.88;;;;;;;8.36;nan;99528.28;5312806;27;20013;-85
2024/04/15 07:08:04;;;;;;;13.90;2.30;;;;;;;8.34;nan;99525.00;5312998;27;20006;-85
2024/04/15 07:10:29;;;;;;;14.38;2.28;;;;;;;8.32;nan;99534.56;5313228;27;20047;-84
2024/04/15 07:12:54;;;;;;;11.45;1.75;;;;;;;8.32;nan;99542.25;5313620;27;20436;-86
2024/04/15 07:15:20;;;;;;;17.33;2.00;;;;;;;8.29;nan;99530.44;5313756;27;20083;-86
2024/04/15 07:17:45;;;;;;;14.90;2.65;;;;;;;8.32;nan;99578.25;5311628;27;20005;-93
2024/04/15 07:20:12;;;;;;;11.50;1.83;;;;;;;7.89;nan;99565.44;5315119;27;20008;-93
2024/04/15 07:22:37;;;;;;;8.70;1.55;;;;;;;7.63;nan;99546.44;5313801;27;20321;-94
2024/04/15 07:25:03;;;;;;;10.80;1.42;;;;;;;7.69;nan;99548.66;5313757;27;20012;-94
2024/04/15 07:27:38;;;;;;;10.40;1.10;;;;;;;7.38;nan;99617.22;5314258;26;20451;-96
2024/04/15 07:30:05;;;;;;;3.13;0.82;;;;;;;7.06;nan;99608.78;5315545;27;20455;-94
2024/04/15 07:32:31;;;;;;;5.95;0.77;;;;;;;6.86;nan;99587.63;5314652;27;19998;-93
2024/04/15 07:34:57;;;;;;;5.40;1.65;;;;;;;6.89;nan;99578.13;5310991;27;20333;-93
2024/04/15 07:37:22;;;;;;;4.93;0.60;;;;;;;7.13;nan;99581.88;5277328;27;20049;-93
2024/04/15 07:39:48;;;;;;;2.33;0.68;;;;;;;7.19;nan;99576.38;5310161;27;20010;-93
2024/04/15 07:42:14;;;;;;;6.07;1.45;;;;;;;7.25;nan;99565.75;5310637;27;20364;-91
2024/04/15 07:44:39;;;;;;;5.65;0.70;;;;;;;7.32;nan;99540.56;5311294;27;20008;-92
2024/04/15 07:47:05;;;;;;;5.70;0.70;;;;;;;7.14;nan;99562.97;5281180;27;20496;-92
2024/04/15 07:49:30;;;;;;;5.47;0.60;;;;;;;7.20;nan;99567.78;5281411;27;20344;-88
2024/04/15 07:51:56;;;;;;;5.70;1.20;;;;;;;7.44;nan;99580.13;5281171;27;20026;-92
2024/04/15 07:54:22;;;;;;;2.78;0.50;;;;;;;7.38;nan;99586.41;5281440;27;20318;-91
2024/04/15 07:56:47;;;;;;;4.18;0.60;;;;;;;7.51;nan;99591.69;5281621;27;20001;-91
2024/04/15 07:59:12;;;;;;;4.20;0.82;;;;;;;7.55;nan;99592.31;5280264;27;20547;-91
2024/04/15 08:01:39;;;;;;;6.45;1.02;;;;;;;7.64;nan;99587.47;5310826;27;19998;-92
2024/04/15 08:04:04;;;;;;;3.78;0.90;;;;;;;7.88;nan;99580.03;5279913;27;20420;-92
2024/04/15 08:06:30;;;;;;;4.97;1.40;;;;;;;8.98;nan;99582.66;5275657;26;19997;-91
2024/04/15 08:08:55;;;;;;;4.88;0.85;;;;;;;9.09;nan;99578.56;5275787;27;19998;-90
2024/04/15 08:11:21;;;;;;;1.75;0.75;;;;;;;9.10;nan;99588.78;5305757;27;20005;-92
2024/04/15 08:13:46;;;;;;;6.65;1.00;;;;;;;9.07;nan;99582.97;5278066;27;20025;-92
2024/04/15 08:16:11;;;;;;;6.65;1.05;;;;;;;8.86;nan;99585.19;5311905;27;20444;-91
2024/04/15 08:18:37;;;;;;;6.28;0.95;;;;;;;8.80;nan;99609.56;5312568;26;20008;-91
2024/04/15 08:21:02;;;;;;;6.13;0.90;;;;;;;8.52;nan;99615.63;5282039;27;20509;-90
2024/04/15 08:23:28;;;;;;;10.02;1.00;;;;;;;8.47;nan;99618.47;5300358;27;20457;-93
2024/04/15 08:25:57;;;;;;;7.82;1.15;;;;;;;8.34;nan;99618.38;5272164;27;20013;-91
2024/04/15 08:28:23;;;;;;;5.75;1.25;;;;;;;8.33;nan;99621.03;5266563;27;20006;-92
2024/04/15 08:30:49;;;;;;;10.68;1.30;;;;;;;8.52;nan;99618.19;5274256;27;20013;-90
2024/04/15 08:33:15;;;;;;;9.90;2.05;;;;;;;8.71;nan;99618.69;5274855;27;20145;-90
2024/04/15 08:35:40;;;;;;;9.55;1.40;;;;;;;8.92;nan;99625.97;5307918;27;20002;-95
2024/04/15 08:38:15;;;;;;;7.50;1.10;;;;;;;9.56;nan;99597.78;5286270;27;19986;-96
2024/04/15 08:40:52;;;;;;;5.95;1.17;;;;;;;9.77;nan;99601.50;5307718;27;20006;-93
2024/04/15 08:43:23;;;;;;;11.85;1.75;;;;;;;10.14;nan;99604.13;5276034;27;20067;-92
2024/04/15 08:45:53;;;;;;;5.93;1.08;;;;;;;11.08;nan;99605.28;5273969;27;19999;-90
2024/04/15 08:48:25;;;;;;;8.63;1.33;;;;;;;11.08;nan;99590.63;5308676;26;20347;-94
2024/04/15 08:50:54;;;;;;;8.85;1.90;;;;;;;11.00;nan;99586.94;5280612;27;19998;-91
2024/04/15 08:53:19;;;;;;;15.15;1.58;;;;;;;11.17;nan;99594.28;5278268;27;20005;-92
2024/04/15 08:55:46;;;;;;;30.08;2.95;;;;;;;11.41;nan;99602.00;5280003;27;20079;-90
2024/04/15 08:58:11;;;;;;;13.35;2.78;;;;;;;11.26;nan;99603.13;5257243;27;20085;-95
2024/04/15 09:00:37;;;;;;;13.30;1.73;;;;;;;10.73;nan;99605.25;5298488;27;20017;-95
2024/04/15 09:03:04;;;;;;;6.97;1.30;;;;;;;10.64;nan;99617.88;5277113;27;20013;-93
2024/04/15 09:05:30;;;;;;;8.80;1.45;;;;;;;10.68;nan;99624.47;5248960;27;20013;-94
2024/04/15 09:07:56;;;;;;;6.65;1.17;;;;;;;10.55;nan;99625.44;5251281;27;20452;-93
2024/04/15 09:10:21;;;;;;;10.55;1.50;;;;;;;10.42;nan;99640.97;5264630;27;20006;-90
2024/04/15 09:12:48;;;;;;;8.65;2.00;;;;;;;10.36;nan;99633.63;5252679;27;20477;-95
2024/04/15 09:15:17;;;;;;;10.63;1.88;;;;;;;11.70;nan;99635.16;5276510;27;20014;-95
2024/04/15 09:17:43;;;;;;;10.48;2.95;;;;;;;12.66;nan;99645.06;5278853;27;20038;-93
2024/04/15 09:20:09;;;;;;;8.15;1.42;;;;;;;13.00;nan;99644.97;5260341;27;20001;-93
2024/04/15 09:22:36;;;;;;;11.23;2.38;;;;;;;13.44;nan;99659.53;5265367;27;20006;-93
2024/04/15 09:25:02;;;;;;;10.05;2.65;;;;;;;13.36;nan;99676.66;5260205;27;20539;-94
2024/04/15 09:27:27;;;;;;;7.95;1.60;;;;;;;13.99;nan;99668.88;5260067;27;20025;-93
2024/04/15 09:29:54;;;;;;;12.55;1.67;;;;;;;13.57;nan;99664.53;5249356;27;20018;-95
2024/04/15 09:32:20;;;;;;;9.85;2.10;;;;;;;13.64;nan;99681.22;5253070;27;20507;-93
2024/04/15 09:34:46;;;;;;;11.90;1.75;;;;;;;13.40;nan;99665.91;5261421;27;20046;-93
2024/04/15 09:37:13;;;;;;;13.23;1.98;;;;;;;12.83;nan;99688.56;5261956;27;20002;-91
2024/04/15 09:39:47;;;;;;;8.07;1.70;;;;;;;13.49;nan;99682.50;5257018;27;20017;-96
2024/04/15 09:42:15;;;;;;;10.30;1.40;;;;;;;12.82;nan;99679.16;5300633;27;20002;-92
2024/04/15 09:44:45;;;;;;;8.20;1.20;;;;;;;13.05;nan;99673.94;5279065;27;20452;-93
2024/04/15 09:47:14;;;;;;;9.90;1.70;;;;;;;11.71;nan;99665.25;5313162;21;20009;-93
2024/04/15 09:49:40;;;;;;;9.18;1.38;;;;;;;11.40;nan;99677.84;5337571;26;20077;-93
2024/04/15 09:52:07;;;;;;;8.43;1.55;;;;;;;11.33;nan;99685.22;5336842;26;19993;-96
2024/04/15 09:54:35;;;;;;;4.50;1.20;;;;;;;10.69;nan;99700.13;5325330;26;20005;-93
2024/04/15 09:57:25;;;;;;;10.77;1.92;;;;;;;10.93;nan;99700.19;5303231;26;20008;-92
2024/04/15 09:59:58;;;;;;;10.57;1.63;;;;;;;11.36;nan;99702.25;5307836;27;19997;-93
2024/04/15 10:02:45;;;;;;;7.70;1.20;;;;;;;12.06;nan;99716.13;5308704;27;20097;-95
2024/04/15 10:05:17;;;;;;;10.77;1.58;;;;;;;12.59;nan;99713.81;5309684;27;19998;-96
2024/04/15 10:07:45;;;;;;;;;;;;;;;12.47;nan;99717.34;5293536;26;20040;-91
2024/04/15 10:10:11;;;;;;;9.10;1.33;;;;;;;12.78;nan;99724.38;5291104;26;19934;-94
2024/04/15 10:12:36;;;;;;;14.73;2.75;;;;;;;12.29;nan;99716.97;5282524;27;20403;-92
2024/04/15 10:15:02;;;;;;;6.82;1.35;;;;;;;12.43;nan;99724.50;5307656;27;20100;-92
2024/04/15 10:17:28;;;;;;;5.72;1.23;;;;;;;13.68;nan;99736.28;5308118;26;20005;-92
2024/04/15 10:19:53;;;;;;;7.93;1.25;;;;;;;12.98;nan;99714.22;5311409;27;19993;-95
2024/04/15 10:22:18;;;;;;;10.05;1.50;;;;;;;12.62;nan;99749.78;5291520;27;20009;-92
2024/04/15 10:24:44;;;;;;;5.22;1.25;;;;;;;13.03;nan;99736.22;5273838;27;19998;-91
2024/04/15 10:27:11;;;;;;;6.60;1.45;;;;;;;12.80;nan;99745.78;5272801;27;20553;-94
2024/04/15 10:29:40;;;;;;;6.10;1.25;;;;;;;11.75;nan;99742.47;5269625;27;20006;-91
2024/04/15 10:32:07;;;;;;;4.88;1.20;;;;;;;11.44;nan;99771.50;5273036;27;20023;-91
2024/04/15 10:34:40;;;;;;;7.93;1.42;;;;;;;10.54;nan;99771.69;5270081;27;20002;-93
2024/04/15 10:37:10;;;;;;;7.30;1.20;;;;;;;10.46;nan;99779.09;5279989;27;20014;-91
2024/04/15 10:39:43;;;;;;;5.82;1.67;;;;;;;11.40;nan;99776.03;5289572;27;20010;-91
2024/04/15 10:42:09;;;;;;;10.65;1.27;;;;;;;11.43;nan;99774.97;5283763;27;20012;-91
2024/04/15 10:44:35;;;;;;;5.47;1.35;;;;;;;12.31;nan;99777.19;5305562;27;19994;-91
2024/04/15 10:47:00;;;;;;;8.68;1.20;;;;;;;12.72;nan;99763.66;5303176;26;20014;-92
2024/04/15 10:49:26;;;;;;;9.80;1.17;;;;;;;13.11;nan;99773.66;5279937;27;20005;-93
2024/04/15 10:51:51;;;;;;;5.80;1.25;;;;;;;13.34;nan;99770.09;5294723;27;20489;-93
2024/04/15 10:54:16;;;;;;;5.40;1.23;;;;;;;13.44;nan;99765.00;5274172;27;19998;-93
2024/04/15 10:56:42;;;;;;;6.57;0.85;;;;;;;14.25;nan;99763.53;5269627;27;20042;-91
2024/04/15 10:59:12;;;;;;;9.40;1.77;;;;;;;14.43;nan;99761.16;5266828;27;20010;-93
2024/04/15 11:01:37;;;;;;;10.32;2.47;;;;;;;15.03;nan;99774.25;5269023;27;20735;-93
2024/04/15 11:04:06;;;;;;;17.98;1.92;;;;;;;14.04;nan;99758.34;5266049;27;20675;-90
2024/04/15 11:06:33;;;;;;;4.57;1.08;;;;;;;14.09;nan;99761.41;5267399;27;20108;-93
2024/04/15 11:08:58;;;;;;;7.50;2.00;;;;;;;14.49;nan;99778.00;5273743;27;20013;-89
2024/04/15 11:11:24;;;;;;;4.32;1.20;;;;;;;13.75;nan;99770.28;5265862;27;19999;-91
2024/04/15 11:13:49;;;;;;;9.50;1.45;;;;;;;13.56;nan;99782.16;5267230;27;19999;-91
2024/04/15 11:16:15;;;;;;;2.88;1.17;;;;;;;13.48;nan;99774.16;5264932;27;20002;-89
2024/04/15 11:18:40;;;;;;;4.13;1.05;;;;;;;14.13;nan;99778.34;5265667;27;20022;-92
2024/04/15 11:21:06;;;;;;;8.13;1.45;;;;;;;14.95;nan;99774.13;5278484;27;20010;-95
2024/04/15 11:23:32;;;;;;;7.15;1.25;;;;;;;15.19;nan;99789.34;5278532;27;20386;-93
2024/04/15 11:26:00;;;;;;;9.82;1.20;;;;;;;15.14;nan;99776.75;5274168;27;19998;-93
2024/04/15 11:28:26;;;;;;;3.38;0.70;;;;;;;14.54;nan;99794.88;5274002;27;20047;-95
2024/04/15 11:30:54;;;;;;;7.82;1.30;;;;;;;14.62;nan;99807.19;5271399;27;20002;-93
2024/04/15 11:33:20;;;;;;;6.80;1.50;;;;;;;15.66;nan;99806.94;5270030;27;20072;-94
2024/04/15 11:35:50;;;;;;;11.30;1.33;;;;;;;16.13;nan;99794.06;5270542;27;20081;-94
2024/04/15 11:38:16;;;;;;;3.58;1.30;;;;;;;14.55;nan;99791.31;5277522;26;20002;-95
2024/04/15 11:40:42;;;;;;;8.88;1.65;;;;;;;15.79;nan;99797.91;5270147;27;20014;-94
2024/04/15 11:43:07;;;;;;;7.05;1.42;;;;;;;14.95;nan;99781.91;5272449;27;20014;-96